עמוד ראשי
METAR-TAF:

METAR-TAF

שדות תעופה :

Tatalina, אלסקה, ארצות הברית

קו רוחב: 62-54N, קו אורך: 155-59W, גובה: 294מטר

תצפית מזג אוויר נוכחית

הדו"ח נערך לפני 46דקות, בשעה 09:55 UTC
רוח 3קשר עם כיוונים משתנים
טמפרטורת 12 צלסיוס
לחות 88%
לחץ 1013 hPa
ראות: 16.1קילומטר
מעונן בגובה 6000רגל

METAR: PATL 120955Z AUTO VRB03KT 10SM OVC060 12/10 A2990 RMK AO2 SHRAB0855E0913 SLP121 T01190096

זמן: 02:41 (10:41 UTC)


TAF: חסר

תצפיות ותחזיות מזג אוויר לגבי יותר מ- 4,000 שדות תעופה ברחבי העולם. דוחות METAR ו- TAF.

התחנות הזמינות מסומנות בנקודות צהובות ואדומות על גבי המפה.

העבר את העכבר לנקודה הצבעונית על מנת לראות את שם התחנה.

לאחר מכן, לחץ כדי לראות את תוכן ואת תחזיות מזג האוויר.

כדי לשנות את המפה: לחץ על הכפתורים הירוקים עם הפלוס השחור כדי להתקרב; על הכפתור הירוק עם המקף כדי להתרחק; או בחיצים הירוקים למפות סמוכות.


METAR-TAF: